createdAt,value
2022-12-04T00:01:07.848Z,29.63
2022-12-04T00:03:34.510Z,23.55
2022-12-04T00:06:17.767Z,25.77
2022-12-04T00:08:44.664Z,23.70
2022-12-04T00:11:11.790Z,25.88
2022-12-04T00:13:38.436Z,22.38
2022-12-04T00:16:07.285Z,34.33
2022-12-04T00:18:34.357Z,27.60
2022-12-04T00:21:04.270Z,25.23
2022-12-04T00:23:31.026Z,29.45
2022-12-04T00:26:06.116Z,24.83
2022-12-04T00:28:32.980Z,20.00
2022-12-04T00:30:59.616Z,28.67
2022-12-04T00:33:26.189Z,28.83
2022-12-04T00:35:58.598Z,31.52
2022-12-04T00:38:25.201Z,22.92
2022-12-04T00:40:51.980Z,22.50
2022-12-04T00:43:18.827Z,29.77
2022-12-04T00:45:45.563Z,26.05
2022-12-04T00:48:12.255Z,25.85
2022-12-04T00:50:39.005Z,26.95
2022-12-04T00:53:05.637Z,32.47
2022-12-04T00:55:32.236Z,30.15
2022-12-04T00:58:00.158Z,29.08
2022-12-04T01:00:26.942Z,25.30
2022-12-04T01:02:53.672Z,28.30
2022-12-04T01:05:20.385Z,32.00
2022-12-04T01:07:47.000Z,24.98
2022-12-04T01:10:13.770Z,32.28
2022-12-04T01:12:40.346Z,24.10
2022-12-04T01:15:07.379Z,22.90
2022-12-04T01:17:33.997Z,25.45
2022-12-04T01:20:00.587Z,21.58
2022-12-04T01:22:27.253Z,26.30
2022-12-04T01:24:56.031Z,29.63
2022-12-04T01:27:22.888Z,24.13
2022-12-04T01:29:49.915Z,23.60
2022-12-04T01:32:16.763Z,23.35
2022-12-04T01:34:43.439Z,23.88
2022-12-04T01:37:10.041Z,24.42
2022-12-04T01:39:37.018Z,20.98
2022-12-04T01:42:04.607Z,22.90
2022-12-04T01:44:31.407Z,23.70
2022-12-04T01:46:59.333Z,22.00
2022-12-04T01:49:30.360Z,24.67
2022-12-04T01:52:01.416Z,21.38
2022-12-04T01:54:30.460Z,22.65
2022-12-04T01:57:07.471Z,21.20
2022-12-04T01:59:36.384Z,22.58
2022-12-04T02:02:07.168Z,23.40
2022-12-04T02:04:34.541Z,29.33
2022-12-04T02:07:01.402Z,24.05
2022-12-04T02:09:28.304Z,27.48
2022-12-04T02:12:34.785Z,22.85
2022-12-04T02:15:31.432Z,29.70
2022-12-04T02:18:22.795Z,22.50
2022-12-04T02:21:10.191Z,23.95
2022-12-04T02:23:54.602Z,22.38
2022-12-04T02:26:44.410Z,23.65
2022-12-04T02:29:32.557Z,20.33
2022-12-04T02:32:03.480Z,19.48
2022-12-04T02:34:35.027Z,16.67
2022-12-04T02:37:10.846Z,20.03
2022-12-04T02:39:41.300Z,18.35
2022-12-04T02:42:13.639Z,18.50
2022-12-04T02:44:44.607Z,17.17
2022-12-04T02:47:13.516Z,19.40
2022-12-04T02:49:44.926Z,20.38
2022-12-04T02:52:13.095Z,19.08
2022-12-04T02:54:42.088Z,24.15
2022-12-04T02:57:11.480Z,20.45
2022-12-04T02:59:39.790Z,22.60
2022-12-04T03:02:14.241Z,18.65
2022-12-04T03:04:40.969Z,23.95
2022-12-04T03:07:11.522Z,22.52
2022-12-04T03:09:56.273Z,23.23
2022-12-04T03:12:29.535Z,18.90
2022-12-04T03:15:02.268Z,21.73
2022-12-04T03:17:33.958Z,24.10
2022-12-04T03:20:03.891Z,29.23
2022-12-04T03:22:31.109Z,24.30
2022-12-04T03:24:57.747Z,27.13
2022-12-04T03:28:00.554Z,23.88
2022-12-04T03:30:27.222Z,26.35
2022-12-04T03:33:01.070Z,21.00
2022-12-04T03:35:32.876Z,23.23
2022-12-04T03:38:21.381Z,18.40
2022-12-04T03:41:07.477Z,22.90
2022-12-04T03:46:17.049Z,17.85
2022-12-04T03:48:50.047Z,24.42
2022-12-04T03:51:19.763Z,23.10
2022-12-04T03:53:54.636Z,22.38
2022-12-04T03:56:23.491Z,23.00
2022-12-04T03:58:52.538Z,20.50
2022-12-04T04:01:20.660Z,24.77
2022-12-04T04:03:50.003Z,27.65
2022-12-04T04:06:23.355Z,26.15
2022-12-04T04:08:51.900Z,24.38
2022-12-04T04:11:21.799Z,23.13
2022-12-04T04:14:13.222Z,21.98
2022-12-04T04:17:00.698Z,19.65
2022-12-04T04:19:48.971Z,24.80
2022-12-04T04:22:35.527Z,18.05
2022-12-04T04:25:07.230Z,22.88
2022-12-04T04:27:33.824Z,24.30
2022-12-04T04:30:00.418Z,25.77
2022-12-04T04:32:50.732Z,24.98
2022-12-04T04:35:57.376Z,27.13
2022-12-04T04:38:30.246Z,23.42
2022-12-04T04:41:12.551Z,19.88
2022-12-04T04:43:44.243Z,22.88
2022-12-04T04:46:17.182Z,23.47
2022-12-04T04:48:47.251Z,20.83
2022-12-04T04:51:13.854Z,22.73
2022-12-04T04:53:44.443Z,26.90
2022-12-04T04:56:11.138Z,23.83
2022-12-04T04:58:37.725Z,26.27
2022-12-04T05:01:07.791Z,23.70
2022-12-04T05:03:34.842Z,17.75
2022-12-04T05:06:01.610Z,22.13
2022-12-04T05:08:28.189Z,23.83
2022-12-04T05:10:54.920Z,21.40
2022-12-04T05:13:21.602Z,26.15
2022-12-04T05:16:06.270Z,22.35
2022-12-04T05:18:34.074Z,26.27
2022-12-04T05:21:06.991Z,23.77
2022-12-04T05:23:33.890Z,22.05
2022-12-04T05:26:02.802Z,19.08
2022-12-04T05:28:29.408Z,33.20
2022-12-04T05:30:57.350Z,25.02
2022-12-04T05:33:24.059Z,18.10
2022-12-04T05:36:07.354Z,22.50
2022-12-04T05:38:35.516Z,22.38
2022-12-04T05:41:02.927Z,20.88
2022-12-04T05:43:29.697Z,20.63
2022-12-04T05:46:00.143Z,21.52
2022-12-04T05:48:26.724Z,17.90
2022-12-04T05:50:53.258Z,18.73
2022-12-04T05:53:19.870Z,16.20
2022-12-04T05:55:55.782Z,19.45
2022-12-04T05:58:22.358Z,13.82
2022-12-04T06:00:48.945Z,18.38
2022-12-04T06:03:15.581Z,24.10
2022-12-04T06:05:42.318Z,23.35
2022-12-04T06:08:09.030Z,21.27
2022-12-04T06:10:35.667Z,21.77
2022-12-04T06:13:02.311Z,25.23
2022-12-04T06:15:28.890Z,20.67
2022-12-04T06:17:55.549Z,22.73
2022-12-04T06:20:22.220Z,22.73
2022-12-04T06:22:48.842Z,24.08
2022-12-04T06:25:15.433Z,24.95
2022-12-04T06:27:43.707Z,23.63
2022-12-04T06:30:10.842Z,19.13
2022-12-04T06:32:37.431Z,25.70
2022-12-04T06:35:04.195Z,19.80
2022-12-04T06:37:30.811Z,25.92
2022-12-04T06:39:57.753Z,25.17
2022-12-04T06:42:24.555Z,22.38
2022-12-04T06:44:51.167Z,22.95
2022-12-04T06:47:17.899Z,27.50
2022-12-04T06:49:45.976Z,24.77
2022-12-04T06:52:12.535Z,29.30
2022-12-04T06:54:39.088Z,22.52
2022-12-04T06:57:05.699Z,28.90
2022-12-04T06:59:33.762Z,30.52
2022-12-04T07:02:00.397Z,30.95
2022-12-04T07:04:27.008Z,28.67
2022-12-04T07:06:54.400Z,28.85
2022-12-04T07:09:21.055Z,26.13
2022-12-04T07:11:47.680Z,28.35
2022-12-04T07:14:14.922Z,35.63
2022-12-04T07:16:42.375Z,28.88
2022-12-04T07:19:11.378Z,30.83
2022-12-04T07:21:38.008Z,27.52
2022-12-04T07:24:04.712Z,29.10
2022-12-04T07:26:31.516Z,27.17
2022-12-04T07:28:58.511Z,31.05
2022-12-04T07:31:25.712Z,34.40
2022-12-04T07:33:53.839Z,26.13
2022-12-04T07:36:20.852Z,23.30
2022-12-04T07:38:47.782Z,24.77
2022-12-04T07:41:14.585Z,23.48
2022-12-04T07:43:41.264Z,24.38
2022-12-04T07:46:12.873Z,21.83
2022-12-04T07:48:39.635Z,24.03
2022-12-04T07:51:12.172Z,23.38
2022-12-04T07:56:06.293Z,26.48
2022-12-04T07:58:33.440Z,26.92
2022-12-04T08:01:18.034Z,22.27
2022-12-04T08:03:48.090Z,24.90
2022-12-04T08:06:15.738Z,26.08
2022-12-04T08:08:42.446Z,27.30
2022-12-04T08:11:10.192Z,25.20
2022-12-04T08:13:37.015Z,30.52
2022-12-04T08:16:04.781Z,31.90
2022-12-04T08:18:31.662Z,23.67
2022-12-04T08:21:09.162Z,26.02
2022-12-04T08:23:36.204Z,26.77
2022-12-04T08:26:03.141Z,23.05
2022-12-04T08:28:29.772Z,30.75
2022-12-04T08:31:01.460Z,37.20
2022-12-04T08:33:28.465Z,32.20
2022-12-04T08:35:55.077Z,26.95
2022-12-04T08:38:21.667Z,30.98
2022-12-04T08:40:48.235Z,29.15
2022-12-04T08:43:14.807Z,29.88
2022-12-04T08:45:41.413Z,30.23
2022-12-04T08:48:07.971Z,25.50
2022-12-04T08:50:34.541Z,26.25
2022-12-04T08:53:01.141Z,29.50
2022-12-04T08:55:28.056Z,24.42
2022-12-04T08:57:54.864Z,33.25
2022-12-04T09:00:21.688Z,24.95
2022-12-04T09:02:50.184Z,26.65
2022-12-04T09:05:17.465Z,28.88
2022-12-04T09:07:44.272Z,32.70
2022-12-04T09:10:11.516Z,25.90
2022-12-04T09:12:38.163Z,27.23
2022-12-04T09:15:05.235Z,27.33
2022-12-04T09:17:31.832Z,30.85
2022-12-04T09:20:01.176Z,26.10
2022-12-04T09:22:45.666Z,31.95
2022-12-04T09:25:14.822Z,23.50
2022-12-04T09:27:41.654Z,24.33
2022-12-04T09:30:10.152Z,26.15
2022-12-04T09:32:36.822Z,22.88
2022-12-04T09:35:04.324Z,22.90
2022-12-04T09:37:32.150Z,23.65
2022-12-04T09:39:58.721Z,22.00
2022-12-04T09:42:37.437Z,27.10
2022-12-04T09:45:14.372Z,23.40
2022-12-04T09:47:45.522Z,23.90
2022-12-04T09:50:22.963Z,23.02
2022-12-04T09:53:06.719Z,20.73
2022-12-04T09:55:53.973Z,17.67
2022-12-04T09:58:22.801Z,22.05
2022-12-04T10:00:51.576Z,20.23
2022-12-04T10:03:20.379Z,22.70
2022-12-04T10:06:08.346Z,18.88
2022-12-04T10:08:38.628Z,20.25
2022-12-04T10:14:43.454Z,21.05
2022-12-04T10:17:17.960Z,21.88
2022-12-04T10:19:59.011Z,20.92
2022-12-04T10:22:30.302Z,23.05
2022-12-04T10:24:58.962Z,25.33
2022-12-04T10:27:44.756Z,25.58
2022-12-04T10:30:18.728Z,21.77
2022-12-04T10:32:45.609Z,27.88
2022-12-04T10:35:23.678Z,19.20
2022-12-04T10:37:53.544Z,22.98
2022-12-04T10:40:33.485Z,18.92
2022-12-04T10:43:11.116Z,23.65
2022-12-04T10:45:37.704Z,19.98
2022-12-04T10:48:04.627Z,20.52
2022-12-04T10:50:31.197Z,24.90
2022-12-04T10:52:57.844Z,22.15
2022-12-04T10:55:29.466Z,23.50
2022-12-04T10:57:56.217Z,23.37
2022-12-04T11:03:04.823Z,23.75
2022-12-04T11:05:34.912Z,24.80
2022-12-04T11:08:03.345Z,28.10
2022-12-04T11:10:40.057Z,29.02
2022-12-04T11:15:49.900Z,21.33
2022-12-04T11:18:21.739Z,21.80
2022-12-04T11:20:51.428Z,27.20
2022-12-04T11:23:18.072Z,23.17
2022-12-04T11:25:47.179Z,21.23
2022-12-04T11:28:39.893Z,23.42
2022-12-04T11:31:04.827Z,22.65
2022-12-04T11:33:49.659Z,20.80
2022-12-04T11:36:35.424Z,22.02
2022-12-04T11:39:07.578Z,20.20
2022-12-04T11:41:34.264Z,20.05
2022-12-04T11:44:01.205Z,24.33
2022-12-04T11:46:30.567Z,22.85
2022-12-04T11:48:57.386Z,27.90
2022-12-04T11:51:48.806Z,23.90
2022-12-04T11:54:30.079Z,23.33
2022-12-04T11:57:12.880Z,26.05
2022-12-04T12:02:37.691Z,20.60
2022-12-04T12:05:18.583Z,24.63
2022-12-04T12:08:20.839Z,22.95
2022-12-04T12:11:13.887Z,20.23
2022-12-04T12:16:29.950Z,22.77
2022-12-04T12:19:36.414Z,23.80
2022-12-04T12:22:42.851Z,20.05
2022-12-04T12:25:32.280Z,22.70
2022-12-04T12:28:12.482Z,19.27
2022-12-04T12:30:48.754Z,22.60
2022-12-04T12:33:18.979Z,21.05
2022-12-04T12:36:06.166Z,20.38
2022-12-04T12:41:29.366Z,20.02
2022-12-04T12:44:01.239Z,17.48
2022-12-04T12:46:32.146Z,20.48
2022-12-04T12:49:20.542Z,20.10
2022-12-04T12:52:01.373Z,21.27
2022-12-04T12:54:48.952Z,20.85
2022-12-04T12:57:22.527Z,18.42
2022-12-04T12:59:59.948Z,19.10
2022-12-04T13:02:54.660Z,22.02
2022-12-04T13:05:26.950Z,24.45
2022-12-04T13:08:01.334Z,25.77
2022-12-04T13:10:33.869Z,23.42
2022-12-04T13:13:03.843Z,28.58
2022-12-04T13:15:49.189Z,25.85
2022-12-04T13:18:28.934Z,26.83
2022-12-04T13:20:58.988Z,28.67
2022-12-04T13:26:10.397Z,29.95
2022-12-04T13:29:01.736Z,27.67
2022-12-04T13:37:29.904Z,27.60
2022-12-04T13:40:26.444Z,28.13
2022-12-04T13:42:53.192Z,21.77
2022-12-04T13:45:28.265Z,22.77
2022-12-04T13:47:59.622Z,23.17
2022-12-04T13:50:32.934Z,25.83
2022-12-04T13:53:00.713Z,24.75
2022-12-04T13:55:31.272Z,22.30
2022-12-04T13:58:02.884Z,23.40
2022-12-04T14:00:33.856Z,16.93
2022-12-04T14:03:06.056Z,24.45
2022-12-04T14:05:47.831Z,26.40
2022-12-04T14:08:24.226Z,27.15
2022-12-04T14:13:48.338Z,24.95
2022-12-04T14:16:39.215Z,27.05
2022-12-04T14:19:06.029Z,28.77
2022-12-04T14:21:43.970Z,26.83
2022-12-04T14:24:38.588Z,22.35
2022-12-04T14:27:29.688Z,25.98
2022-12-04T14:29:56.493Z,29.13
2022-12-04T14:32:24.864Z,23.65
2022-12-04T14:34:51.864Z,33.88
2022-12-04T14:37:23.675Z,22.75
2022-12-04T14:39:50.315Z,23.90
2022-12-04T14:44:59.917Z,27.67
2022-12-04T14:47:50.268Z,26.58
2022-12-04T14:50:39.770Z,28.95
2022-12-04T14:56:38.345Z,26.58
2022-12-04T14:59:06.354Z,26.73
2022-12-04T15:01:36.594Z,27.10
2022-12-04T15:04:27.667Z,29.50
2022-12-04T15:06:59.934Z,25.20
2022-12-04T15:09:47.391Z,32.13
2022-12-04T15:12:37.708Z,30.15
2022-12-04T15:15:25.747Z,35.15
2022-12-04T15:18:13.192Z,32.28
2022-12-04T15:20:45.023Z,35.90
2022-12-04T15:23:14.095Z,34.38
2022-12-04T15:25:44.437Z,35.15
2022-12-04T15:28:15.414Z,33.47
2022-12-04T15:30:42.655Z,35.33
2022-12-04T15:33:15.228Z,34.88
2022-12-04T15:35:50.872Z,36.65
2022-12-04T15:38:17.478Z,36.20
2022-12-04T15:40:53.550Z,38.30
2022-12-04T15:43:31.360Z,35.88
2022-12-04T15:45:58.202Z,43.90
2022-12-04T15:48:27.820Z,44.33
2022-12-04T15:50:57.136Z,48.13
2022-12-04T15:53:27.342Z,48.33
2022-12-04T15:55:56.790Z,46.13
2022-12-04T15:58:35.264Z,54.38
2022-12-04T16:01:06.793Z,49.78
2022-12-04T16:03:39.682Z,57.47
2022-12-04T16:06:27.236Z,46.45
2022-12-04T16:08:59.818Z,48.85
2022-12-04T16:14:15.912Z,40.25
2022-12-04T16:16:46.225Z,42.65
2022-12-04T16:19:21.842Z,48.15
2022-12-04T16:21:48.486Z,45.15
2022-12-04T16:24:15.258Z,40.78
2022-12-04T16:26:42.091Z,38.28
2022-12-04T16:29:09.174Z,44.85
2022-12-04T16:31:36.639Z,42.95
2022-12-04T16:34:03.299Z,44.78
2022-12-04T16:36:29.930Z,41.53
2022-12-04T16:38:56.624Z,41.67
2022-12-04T16:41:23.457Z,40.80
2022-12-04T16:43:54.262Z,33.08
2022-12-04T16:46:20.901Z,42.15
2022-12-04T16:48:47.547Z,36.45
2022-12-04T16:51:15.777Z,44.33
2022-12-04T16:53:42.424Z,38.72
2022-12-04T16:56:09.309Z,31.88
2022-12-04T16:58:36.070Z,40.10
2022-12-04T17:01:03.047Z,37.60
2022-12-04T17:03:31.227Z,34.55
2022-12-04T17:05:58.173Z,37.92
2022-12-04T17:08:24.796Z,34.72
2022-12-04T17:10:51.447Z,29.17
2022-12-04T17:13:19.002Z,32.45
2022-12-04T17:15:45.760Z,34.50
2022-12-04T17:18:17.674Z,37.58
2022-12-04T17:20:47.297Z,26.83
2022-12-04T17:23:13.953Z,34.67
2022-12-04T17:25:40.718Z,28.27
2022-12-04T17:28:07.419Z,27.27
2022-12-04T17:30:36.260Z,23.80
2022-12-04T17:33:03.900Z,25.48
2022-12-04T17:35:30.759Z,29.23
2022-12-04T17:38:00.747Z,29.77
2022-12-04T17:40:32.168Z,25.38
2022-12-04T17:42:58.731Z,31.05
2022-12-04T17:45:25.443Z,26.08
2022-12-04T17:47:52.056Z,21.55
2022-12-04T17:50:18.654Z,27.08
2022-12-04T17:52:45.281Z,27.10
2022-12-04T17:55:12.083Z,26.60
2022-12-04T17:57:38.646Z,29.55
2022-12-04T18:00:08.172Z,28.02
2022-12-04T18:02:34.801Z,30.33
2022-12-04T18:05:01.532Z,24.55
2022-12-04T18:07:28.264Z,29.90
2022-12-04T18:09:55.364Z,30.33
2022-12-04T18:12:22.142Z,28.52
2022-12-04T18:14:48.787Z,27.67
2022-12-04T18:17:17.413Z,24.52
2022-12-04T18:19:44.080Z,30.52
2022-12-04T18:22:11.044Z,28.02
2022-12-04T18:24:37.885Z,28.60
2022-12-04T18:27:05.232Z,26.73
2022-12-04T18:29:31.889Z,29.83
2022-12-04T18:31:58.564Z,24.75
2022-12-04T18:34:25.297Z,28.45
2022-12-04T18:36:51.862Z,22.50
2022-12-04T18:39:20.469Z,22.75
2022-12-04T18:41:47.221Z,22.63
2022-12-04T18:44:13.882Z,27.73
2022-12-04T18:46:40.696Z,24.58
2022-12-04T18:49:09.092Z,24.77
2022-12-04T18:51:39.267Z,23.73
2022-12-04T18:54:07.917Z,25.52
2022-12-04T18:56:35.270Z,28.42
2022-12-04T18:59:05.312Z,21.52
2022-12-04T19:01:32.130Z,22.85
2022-12-04T19:04:00.888Z,22.42
2022-12-04T19:06:30.382Z,23.50
2022-12-04T19:08:58.954Z,22.10
2022-12-04T19:11:25.647Z,16.42
2022-12-04T19:13:52.600Z,20.83
2022-12-04T19:16:19.377Z,21.50
2022-12-04T19:18:46.717Z,18.75
2022-12-04T19:21:14.400Z,22.48
2022-12-04T19:23:41.545Z,20.55
2022-12-04T19:26:08.340Z,20.08
2022-12-04T19:28:35.232Z,27.75
2022-12-04T19:31:01.950Z,24.40
2022-12-04T19:33:29.259Z,23.70
2022-12-04T19:35:59.819Z,25.15
2022-12-04T19:38:26.977Z,26.55
2022-12-04T19:41:15.630Z,22.20
2022-12-04T19:43:44.013Z,25.55
2022-12-04T19:46:11.548Z,22.75
2022-12-04T19:48:38.412Z,22.02
2022-12-04T19:51:07.023Z,22.45
2022-12-04T19:53:39.178Z,29.33
2022-12-04T19:56:12.157Z,27.17
2022-12-04T19:58:38.991Z,25.27
2022-12-04T20:01:07.805Z,27.80
2022-12-04T20:03:34.692Z,23.83
2022-12-04T20:06:03.271Z,23.70
2022-12-04T20:08:29.908Z,25.17
2022-12-04T20:10:56.579Z,37.33
2022-12-04T20:13:23.218Z,35.05
2022-12-04T20:15:50.145Z,27.92
2022-12-04T20:18:16.757Z,25.45
2022-12-04T20:20:45.666Z,24.15
2022-12-04T20:23:56.227Z,22.85
2022-12-04T20:26:24.728Z,30.85
2022-12-04T20:28:52.100Z,25.10
2022-12-04T20:31:22.022Z,27.40
2022-12-04T20:33:50.260Z,28.23
2022-12-04T20:36:18.783Z,29.80
2022-12-04T20:38:45.574Z,31.05
2022-12-04T20:41:15.802Z,25.55
2022-12-04T20:43:43.185Z,23.13
2022-12-04T20:46:14.464Z,38.20
2022-12-04T20:48:47.861Z,24.98
2022-12-04T20:51:17.287Z,32.70
2022-12-04T20:53:44.479Z,28.48
2022-12-04T20:56:11.175Z,29.17
2022-12-04T20:58:39.175Z,25.35
2022-12-04T21:01:11.908Z,28.70
2022-12-04T21:03:38.616Z,22.02
2022-12-04T21:06:08.653Z,19.27
2022-12-04T21:08:55.241Z,21.30
2022-12-04T21:11:31.273Z,23.92
2022-12-04T21:14:18.821Z,17.50
2022-12-04T21:16:46.105Z,19.15
2022-12-04T21:19:14.458Z,20.30
2022-12-04T21:21:41.412Z,23.13
2022-12-04T21:24:09.724Z,28.25
2022-12-04T21:26:36.405Z,21.80
2022-12-04T21:29:03.605Z,20.67
2022-12-04T21:31:30.518Z,21.00
2022-12-04T21:33:59.536Z,17.02
2022-12-04T21:36:26.688Z,31.17
2022-12-04T21:38:53.509Z,19.80
2022-12-04T21:41:40.465Z,16.98
2022-12-04T21:44:08.017Z,18.17
2022-12-04T21:46:34.750Z,17.60
2022-12-04T21:49:01.404Z,19.98
2022-12-04T21:51:55.632Z,21.90
2022-12-04T21:54:14.791Z,22.80
2022-12-04T21:56:41.577Z,20.05
2022-12-04T21:59:08.208Z,23.40
2022-12-04T22:01:34.913Z,24.00
2022-12-04T22:04:01.725Z,19.45
2022-12-04T22:06:28.566Z,19.05
2022-12-04T22:08:55.366Z,25.17
2022-12-04T22:11:22.156Z,26.70
2022-12-04T22:13:48.836Z,20.70
2022-12-04T22:16:16.902Z,19.33
2022-12-04T22:18:43.639Z,28.88
2022-12-04T22:21:12.803Z,25.23
2022-12-04T22:23:39.725Z,22.20
2022-12-04T22:26:08.707Z,19.33
2022-12-04T22:28:35.510Z,20.92
2022-12-04T22:31:06.903Z,21.13
2022-12-04T22:33:33.795Z,24.45
2022-12-04T22:36:06.300Z,20.45
2022-12-04T22:41:02.470Z,19.90
2022-12-04T22:43:29.936Z,23.55
2022-12-04T22:45:57.311Z,22.58
2022-12-04T22:48:24.684Z,21.25
2022-12-04T22:51:02.221Z,17.73
2022-12-04T22:53:29.289Z,21.73
2022-12-04T22:55:55.949Z,22.70
2022-12-04T22:58:22.688Z,19.95
2022-12-04T23:00:49.557Z,22.35
2022-12-04T23:03:16.614Z,18.92
2022-12-04T23:05:43.274Z,23.52
2022-12-04T23:08:10.000Z,18.17
2022-12-04T23:10:38.043Z,19.17
2022-12-04T23:13:04.748Z,21.77
2022-12-04T23:15:31.459Z,29.40
2022-12-04T23:17:58.100Z,23.13
2022-12-04T23:20:24.759Z,22.95
2022-12-04T23:22:54.649Z,19.13
2022-12-04T23:25:21.801Z,18.80
2022-12-04T23:27:48.784Z,20.58
2022-12-04T23:30:15.589Z,19.35
2022-12-04T23:32:42.230Z,18.48
2022-12-04T23:35:09.209Z,17.75
2022-12-04T23:37:35.944Z,21.38
2022-12-04T23:40:02.770Z,21.05
2022-12-04T23:42:32.164Z,18.25
2022-12-04T23:44:59.201Z,19.13
2022-12-04T23:47:25.990Z,18.50
2022-12-04T23:49:52.608Z,26.58
2022-12-04T23:52:19.340Z,17.05
2022-12-04T23:54:46.612Z,18.27
2022-12-04T23:57:13.324Z,24.02
2022-12-04T23:59:40.127Z,19.73
